sensor_id;sensor_type;location;lat;lon;timestamp;noise_LAeq;noise_LA_min;noise_LA_max;noise_LA01;noise_LA95
66274;Laerm;58450;52.150;4.466;2023-02-22T00:00:44;37.76;34.62;43.58;;
66274;Laerm;58450;52.150;4.466;2023-02-22T00:03:18;39.53;34.78;50.48;;
66274;Laerm;58450;52.150;4.466;2023-02-22T00:05:53;37.30;34.01;43.68;;
66274;Laerm;58450;52.150;4.466;2023-02-22T00:08:24;37.56;34.66;49.69;;
66274;Laerm;58450;52.150;4.466;2023-02-22T00:10:55;37.52;34.28;44.03;;
66274;Laerm;58450;52.150;4.466;2023-02-22T00:13:23;39.91;33.40;59.48;;
66274;Laerm;58450;52.150;4.466;2023-02-22T00:15:52;39.25;33.97;57.65;;
66274;Laerm;58450;52.150;4.466;2023-02-22T00:18:20;40.42;34.57;55.88;;
66274;Laerm;58450;52.150;4.466;2023-02-22T00:20:47;37.99;33.90;56.23;;
66274;Laerm;58450;52.150;4.466;2023-02-22T00:23:18;37.52;34.22;43.58;;
66274;Laerm;58450;52.150;4.466;2023-02-22T00:25:47;37.65;34.16;43.75;;
66274;Laerm;58450;52.150;4.466;2023-02-22T00:28:16;37.36;34.39;43.41;;
66274;Laerm;58450;52.150;4.466;2023-02-22T00:30:44;38.32;33.27;51.27;;
66274;Laerm;58450;52.150;4.466;2023-02-22T00:33:15;40.14;33.99;56.76;;
66274;Laerm;58450;52.150;4.466;2023-02-22T00:35:44;39.97;34.50;57.74;;
66274;Laerm;58450;52.150;4.466;2023-02-22T00:38:14;42.03;33.58;62.65;;
66274;Laerm;58450;52.150;4.466;2023-02-22T00:40:42;40.89;33.37;53.45;;
66274;Laerm;58450;52.150;4.466;2023-02-22T00:43:10;37.51;34.26;45.38;;
66274;Laerm;58450;52.150;4.466;2023-02-22T00:45:37;38.27;34.38;50.98;;
66274;Laerm;58450;52.150;4.466;2023-02-22T00:48:06;39.21;32.70;58.21;;
66274;Laerm;58450;52.150;4.466;2023-02-22T00:50:36;37.45;34.25;43.22;;
66274;Laerm;58450;52.150;4.466;2023-02-22T00:53:04;37.52;33.83;43.67;;
66274;Laerm;58450;52.150;4.466;2023-02-22T00:55:36;37.59;33.77;44.24;;
66274;Laerm;58450;52.150;4.466;2023-02-22T00:58:04;38.99;33.13;53.78;;
66274;Laerm;58450;52.150;4.466;2023-02-22T01:00:36;42.58;32.06;67.01;;
66274;Laerm;58450;52.150;4.466;2023-02-22T01:03:06;38.07;34.51;50.80;;
66274;Laerm;58450;52.150;4.466;2023-02-22T01:05:36;37.81;34.54;46.87;;
66274;Laerm;58450;52.150;4.466;2023-02-22T01:08:06;37.76;33.90;45.23;;
66274;Laerm;58450;52.150;4.466;2023-02-22T01:10:36;41.14;33.56;62.43;;
66274;Laerm;58450;52.150;4.466;2023-02-22T01:13:05;37.93;35.12;45.20;;
66274;Laerm;58450;52.150;4.466;2023-02-22T01:15:39;37.38;33.92;47.84;;
66274;Laerm;58450;52.150;4.466;2023-02-22T01:18:08;37.64;33.22;44.60;;
66274;Laerm;58450;52.150;4.466;2023-02-22T01:20:38;37.54;34.67;51.36;;
66274;Laerm;58450;52.150;4.466;2023-02-22T01:23:06;37.46;34.98;45.98;;
66274;Laerm;58450;52.150;4.466;2023-02-22T01:25:35;37.22;34.60;46.14;;
66274;Laerm;58450;52.150;4.466;2023-02-22T01:28:07;42.26;34.98;58.31;;
66274;Laerm;58450;52.150;4.466;2023-02-22T01:30:35;41.07;35.04;65.26;;
66274;Laerm;58450;52.150;4.466;2023-02-22T01:33:05;39.77;33.19;53.76;;
66274;Laerm;58450;52.150;4.466;2023-02-22T01:35:36;37.31;34.92;43.76;;
66274;Laerm;58450;52.150;4.466;2023-02-22T01:38:08;37.55;34.42;43.86;;
66274;Laerm;58450;52.150;4.466;2023-02-22T01:40:38;37.51;35.00;43.32;;
66274;Laerm;58450;52.150;4.466;2023-02-22T01:43:18;37.34;34.86;43.70;;
66274;Laerm;58450;52.150;4.466;2023-02-22T01:45:54;37.56;34.88;45.25;;
66274;Laerm;58450;52.150;4.466;2023-02-22T01:48:30;37.39;34.96;43.13;;
66274;Laerm;58450;52.150;4.466;2023-02-22T01:51:03;38.88;34.76;53.12;;
66274;Laerm;58450;52.150;4.466;2023-02-22T01:53:44;37.39;32.57;43.52;;
66274;Laerm;58450;52.150;4.466;2023-02-22T01:56:15;37.39;34.09;44.97;;
66274;Laerm;58450;52.150;4.466;2023-02-22T01:58:47;37.22;34.45;43.14;;
66274;Laerm;58450;52.150;4.466;2023-02-22T02:01:19;37.32;33.23;43.34;;
66274;Laerm;58450;52.150;4.466;2023-02-22T02:03:49;37.60;33.74;42.92;;
66274;Laerm;58450;52.150;4.466;2023-02-22T02:06:19;38.04;34.41;58.51;;
66274;Laerm;58450;52.150;4.466;2023-02-22T02:08:57;37.49;34.95;43.76;;
66274;Laerm;58450;52.150;4.466;2023-02-22T02:11:27;38.19;34.25;44.43;;
66274;Laerm;58450;52.150;4.466;2023-02-22T02:13:56;37.56;34.77;45.15;;
66274;Laerm;58450;52.150;4.466;2023-02-22T02:16:32;41.13;34.77;50.14;;
66274;Laerm;58450;52.150;4.466;2023-02-22T02:19:03;38.29;34.00;45.96;;
66274;Laerm;58450;52.150;4.466;2023-02-22T02:28:44;37.57;33.77;43.71;;
66274;Laerm;58450;52.150;4.466;2023-02-22T02:31:54;38.08;33.76;52.73;;
66274;Laerm;58450;52.150;4.466;2023-02-22T02:34:33;40.57;35.24;60.87;;
66274;Laerm;58450;52.150;4.466;2023-02-22T02:37:11;37.59;34.49;50.35;;
66274;Laerm;58450;52.150;4.466;2023-02-22T02:39:52;38.24;35.17;48.29;;
66274;Laerm;58450;52.150;4.466;2023-02-22T02:42:33;38.07;35.02;43.97;;
66274;Laerm;58450;52.150;4.466;2023-02-22T02:45:10;37.92;33.64;45.31;;
66274;Laerm;58450;52.150;4.466;2023-02-22T02:47:48;38.34;34.96;47.66;;
66274;Laerm;58450;52.150;4.466;2023-02-22T02:50:22;37.68;34.96;43.11;;
66274;Laerm;58450;52.150;4.466;2023-02-22T02:52:54;37.95;34.64;43.26;;
66274;Laerm;58450;52.150;4.466;2023-02-22T02:55:24;37.58;33.43;43.75;;
66274;Laerm;58450;52.150;4.466;2023-02-22T02:57:52;37.73;33.80;43.60;;
66274;Laerm;58450;52.150;4.466;2023-02-22T03:00:27;39.18;34.90;46.03;;
66274;Laerm;58450;52.150;4.466;2023-02-22T03:03:16;37.72;34.32;43.09;;
66274;Laerm;58450;52.150;4.466;2023-02-22T03:06:20;38.00;34.64;43.55;;
66274;Laerm;58450;52.150;4.466;2023-02-22T03:08:56;43.74;34.53;67.19;;
66274;Laerm;58450;52.150;4.466;2023-02-22T03:11:32;38.76;34.70;50.45;;
66274;Laerm;58450;52.150;4.466;2023-02-22T03:14:10;38.32;33.90;45.26;;
66274;Laerm;58450;52.150;4.466;2023-02-22T03:16:48;38.26;34.01;43.74;;
66274;Laerm;58450;52.150;4.466;2023-02-22T03:19:27;38.52;35.35;44.02;;
66274;Laerm;58450;52.150;4.466;2023-02-22T03:22:06;38.15;34.93;48.77;;
66274;Laerm;58450;52.150;4.466;2023-02-22T03:24:44;38.80;34.80;47.84;;
66274;Laerm;58450;52.150;4.466;2023-02-22T03:27:23;39.74;35.56;52.19;;
66274;Laerm;58450;52.150;4.466;2023-02-22T03:30:00;38.75;35.21;45.24;;
66274;Laerm;58450;52.150;4.466;2023-02-22T03:32:35;50.30;35.80;71.48;;
66274;Laerm;58450;52.150;4.466;2023-02-22T03:35:09;40.45;35.07;55.95;;
66274;Laerm;58450;52.150;4.466;2023-02-22T03:37:43;38.66;35.08;56.10;;
66274;Laerm;58450;52.150;4.466;2023-02-22T03:40:17;38.53;34.97;45.28;;
66274;Laerm;58450;52.150;4.466;2023-02-22T03:42:55;38.39;35.38;43.54;;
66274;Laerm;58450;52.150;4.466;2023-02-22T03:45:28;38.63;35.77;44.34;;
66274;Laerm;58450;52.150;4.466;2023-02-22T03:48:03;38.10;35.10;48.55;;
66274;Laerm;58450;52.150;4.466;2023-02-22T03:50:37;38.04;35.25;44.70;;
66274;Laerm;58450;52.150;4.466;2023-02-22T03:53:05;38.23;35.04;46.72;;
66274;Laerm;58450;52.150;4.466;2023-02-22T03:55:33;38.37;35.11;47.08;;
66274;Laerm;58450;52.150;4.466;2023-02-22T03:58:05;38.67;35.36;44.77;;
66274;Laerm;58450;52.150;4.466;2023-02-22T04:00:37;38.47;34.48;43.78;;
66274;Laerm;58450;52.150;4.466;2023-02-22T04:03:04;38.82;35.31;45.81;;
66274;Laerm;58450;52.150;4.466;2023-02-22T04:05:32;39.29;36.08;45.72;;
66274;Laerm;58450;52.150;4.466;2023-02-22T04:08:01;39.74;36.02;48.78;;
66274;Laerm;58450;52.150;4.466;2023-02-22T04:10:28;39.70;35.61;57.01;;
66274;Laerm;58450;52.150;4.466;2023-02-22T04:12:56;38.66;35.11;44.71;;
66274;Laerm;58450;52.150;4.466;2023-02-22T04:15:24;39.73;35.87;46.68;;
66274;Laerm;58450;52.150;4.466;2023-02-22T04:17:51;45.11;35.86;71.90;;
66274;Laerm;58450;52.150;4.466;2023-02-22T04:20:19;40.38;35.34;59.14;;
66274;Laerm;58450;52.150;4.466;2023-02-22T04:22:50;39.50;36.08;46.73;;
66274;Laerm;58450;52.150;4.466;2023-02-22T04:25:21;41.84;36.72;54.72;;
66274;Laerm;58450;52.150;4.466;2023-02-22T04:27:49;39.94;35.95;48.38;;
66274;Laerm;58450;52.150;4.466;2023-02-22T04:30:18;39.65;35.83;46.60;;
66274;Laerm;58450;52.150;4.466;2023-02-22T04:32:46;40.51;36.32;51.92;;
66274;Laerm;58450;52.150;4.466;2023-02-22T04:35:14;41.23;37.56;52.47;;
66274;Laerm;58450;52.150;4.466;2023-02-22T04:37:42;39.99;36.49;55.86;;
66274;Laerm;58450;52.150;4.466;2023-02-22T04:40:09;41.43;36.25;62.17;;
66274;Laerm;58450;52.150;4.466;2023-02-22T04:42:38;41.38;36.79;48.25;;
66274;Laerm;58450;52.150;4.466;2023-02-22T04:45:08;45.32;36.44;64.97;;
66274;Laerm;58450;52.150;4.466;2023-02-22T04:47:36;39.67;36.31;47.77;;
66274;Laerm;58450;52.150;4.466;2023-02-22T04:50:05;40.73;36.16;56.28;;
66274;Laerm;58450;52.150;4.466;2023-02-22T04:52:34;44.09;35.53;62.70;;
66274;Laerm;58450;52.150;4.466;2023-02-22T04:55:01;42.22;36.74;63.32;;
66274;Laerm;58450;52.150;4.466;2023-02-22T04:57:29;41.86;36.74;53.03;;
66274;Laerm;58450;52.150;4.466;2023-02-22T04:59:59;45.70;37.15;59.79;;
66274;Laerm;58450;52.150;4.466;2023-02-22T05:02:26;41.72;37.21;56.47;;
66274;Laerm;58450;52.150;4.466;2023-02-22T05:04:54;40.79;36.87;49.10;;
66274;Laerm;58450;52.150;4.466;2023-02-22T05:07:21;41.53;37.06;51.12;;
66274;Laerm;58450;52.150;4.466;2023-02-22T05:09:48;42.26;37.05;53.63;;
66274;Laerm;58450;52.150;4.466;2023-02-22T05:12:16;41.20;37.25;49.01;;
66274;Laerm;58450;52.150;4.466;2023-02-22T05:14:44;46.94;37.48;68.50;;
66274;Laerm;58450;52.150;4.466;2023-02-22T05:17:12;45.31;37.25;64.93;;
66274;Laerm;58450;52.150;4.466;2023-02-22T05:19:40;42.46;38.26;53.05;;
66274;Laerm;58450;52.150;4.466;2023-02-22T05:22:08;45.25;38.04;64.58;;
66274;Laerm;58450;52.150;4.466;2023-02-22T05:24:35;42.66;38.06;52.47;;
66274;Laerm;58450;52.150;4.466;2023-02-22T05:27:03;42.33;37.91;52.19;;
66274;Laerm;58450;52.150;4.466;2023-02-22T05:29:31;43.37;38.87;53.58;;
66274;Laerm;58450;52.150;4.466;2023-02-22T05:31:58;42.84;38.12;54.03;;
66274;Laerm;58450;52.150;4.466;2023-02-22T05:34:28;46.54;37.95;63.75;;
66274;Laerm;58450;52.150;4.466;2023-02-22T05:36:56;44.20;38.80;58.31;;
66274;Laerm;58450;52.150;4.466;2023-02-22T05:39:24;47.66;39.57;69.58;;
66274;Laerm;58450;52.150;4.466;2023-02-22T05:41:51;46.07;41.12;60.18;;
66274;Laerm;58450;52.150;4.466;2023-02-22T05:44:19;47.14;40.76;60.18;;
66274;Laerm;58450;52.150;4.466;2023-02-22T05:46:48;43.87;39.45;54.97;;
66274;Laerm;58450;52.150;4.466;2023-02-22T05:49:16;45.31;41.01;53.08;;
66274;Laerm;58450;52.150;4.466;2023-02-22T05:51:45;46.43;42.81;53.67;;
66274;Laerm;58450;52.150;4.466;2023-02-22T05:54:12;46.08;42.42;55.55;;
66274;Laerm;58450;52.150;4.466;2023-02-22T05:56:40;46.46;42.64;52.26;;
66274;Laerm;58450;52.150;4.466;2023-02-22T05:59:07;47.52;42.05;67.10;;
66274;Laerm;58450;52.150;4.466;2023-02-22T06:01:34;46.51;42.73;55.78;;
66274;Laerm;58450;52.150;4.466;2023-02-22T06:04:02;48.58;43.97;56.67;;
66274;Laerm;58450;52.150;4.466;2023-02-22T06:06:30;50.38;44.69;64.02;;
66274;Laerm;58450;52.150;4.466;2023-02-22T06:08:59;53.65;47.59;72.79;;
66274;Laerm;58450;52.150;4.466;2023-02-22T06:11:27;51.68;46.64;69.60;;
66274;Laerm;58450;52.150;4.466;2023-02-22T06:13:54;52.19;46.55;63.94;;
66274;Laerm;58450;52.150;4.466;2023-02-22T06:16:22;56.54;48.41;67.87;;
66274;Laerm;58450;52.150;4.466;2023-02-22T06:18:49;54.52;49.12;62.44;;
66274;Laerm;58450;52.150;4.466;2023-02-22T06:21:17;53.73;48.50;67.52;;
66274;Laerm;58450;52.150;4.466;2023-02-22T06:23:44;54.91;50.46;76.83;;
66274;Laerm;58450;52.150;4.466;2023-02-22T06:26:16;54.93;49.51;69.05;;
66274;Laerm;58450;52.150;4.466;2023-02-22T06:28:45;57.30;51.36;72.53;;
66274;Laerm;58450;52.150;4.466;2023-02-22T06:31:13;58.32;52.67;72.29;;
66274;Laerm;58450;52.150;4.466;2023-02-22T06:33:41;56.91;51.63;64.38;;
66274;Laerm;58450;52.150;4.466;2023-02-22T06:36:09;56.91;50.34;72.12;;
66274;Laerm;58450;52.150;4.466;2023-02-22T06:38:36;54.48;47.44;64.08;;
66274;Laerm;58450;52.150;4.466;2023-02-22T06:41:04;55.50;50.16;62.73;;
66274;Laerm;58450;52.150;4.466;2023-02-22T06:43:33;54.63;48.16;67.59;;
66274;Laerm;58450;52.150;4.466;2023-02-22T06:46:00;51.88;46.65;60.09;;
66274;Laerm;58450;52.150;4.466;2023-02-22T06:48:28;53.72;48.04;68.02;;
66274;Laerm;58450;52.150;4.466;2023-02-22T06:50:55;56.03;50.08;65.05;;
66274;Laerm;58450;52.150;4.466;2023-02-22T06:53:23;56.49;51.03;68.11;;
66274;Laerm;58450;52.150;4.466;2023-02-22T06:55:52;57.36;51.65;71.15;;
66274;Laerm;58450;52.150;4.466;2023-02-22T06:58:20;55.48;50.04;71.69;;
66274;Laerm;58450;52.150;4.466;2023-02-22T07:00:49;54.22;48.23;63.13;;
66274;Laerm;58450;52.150;4.466;2023-02-22T07:03:17;53.92;49.51;62.27;;
66274;Laerm;58450;52.150;4.466;2023-02-22T07:05:45;52.30;46.69;63.26;;
66274;Laerm;58450;52.150;4.466;2023-02-22T07:08:12;49.82;45.30;57.44;;
66274;Laerm;58450;52.150;4.466;2023-02-22T07:10:40;51.43;45.44;62.38;;
66274;Laerm;58450;52.150;4.466;2023-02-22T07:13:07;52.34;46.38;68.78;;
66274;Laerm;58450;52.150;4.466;2023-02-22T07:15:35;53.02;46.96;66.37;;
66274;Laerm;58450;52.150;4.466;2023-02-22T07:18:04;52.30;47.62;62.47;;
66274;Laerm;58450;52.150;4.466;2023-02-22T07:20:33;55.43;50.30;61.94;;
66274;Laerm;58450;52.150;4.466;2023-02-22T07:23:01;55.59;50.00;65.67;;
66274;Laerm;58450;52.150;4.466;2023-02-22T07:25:29;54.14;48.00;67.61;;
66274;Laerm;58450;52.150;4.466;2023-02-22T07:27:57;56.14;51.51;65.60;;
66274;Laerm;58450;52.150;4.466;2023-02-22T07:30:27;55.28;50.08;66.46;;
66274;Laerm;58450;52.150;4.466;2023-02-22T07:32:58;56.77;51.12;67.14;;
66274;Laerm;58450;52.150;4.466;2023-02-22T07:35:29;56.77;52.74;65.02;;
66274;Laerm;58450;52.150;4.466;2023-02-22T07:37:58;56.54;50.98;69.85;;
66274;Laerm;58450;52.150;4.466;2023-02-22T07:40:26;57.60;52.71;76.11;;
66274;Laerm;58450;52.150;4.466;2023-02-22T07:42:57;58.33;54.37;71.66;;
66274;Laerm;58450;52.150;4.466;2023-02-22T07:45:27;58.21;53.71;66.37;;
66274;Laerm;58450;52.150;4.466;2023-02-22T07:47:55;57.84;52.51;69.31;;
66274;Laerm;58450;52.150;4.466;2023-02-22T07:50:25;58.07;52.26;69.56;;
66274;Laerm;58450;52.150;4.466;2023-02-22T07:52:56;57.69;53.43;67.15;;
66274;Laerm;58450;52.150;4.466;2023-02-22T07:55:27;57.75;51.69;74.92;;
66274;Laerm;58450;52.150;4.466;2023-02-22T07:57:59;57.21;52.29;68.87;;
66274;Laerm;58450;52.150;4.466;2023-02-22T08:00:29;57.82;52.73;69.62;;
66274;Laerm;58450;52.150;4.466;2023-02-22T08:02:59;56.46;47.78;67.64;;
66274;Laerm;58450;52.150;4.466;2023-02-22T08:05:30;51.93;44.99;68.41;;
66274;Laerm;58450;52.150;4.466;2023-02-22T08:07:59;50.82;45.32;66.25;;
66274;Laerm;58450;52.150;4.466;2023-02-22T08:10:27;51.88;45.01;71.76;;
66274;Laerm;58450;52.150;4.466;2023-02-22T08:12:56;53.40;46.05;66.60;;
66274;Laerm;58450;52.150;4.466;2023-02-22T08:15:27;55.26;48.64;70.41;;
66274;Laerm;58450;52.150;4.466;2023-02-22T08:17:55;53.30;46.51;66.21;;
66274;Laerm;58450;52.150;4.466;2023-02-22T08:20:23;54.21;47.93;67.54;;
66274;Laerm;58450;52.150;4.466;2023-02-22T08:22:51;54.31;48.56;68.65;;
66274;Laerm;58450;52.150;4.466;2023-02-22T08:25:26;53.81;45.80;64.80;;
66274;Laerm;58450;52.150;4.466;2023-02-22T08:27:58;53.63;45.94;67.70;;
66274;Laerm;58450;52.150;4.466;2023-02-22T08:30:28;50.05;43.50;68.82;;
66274;Laerm;58450;52.150;4.466;2023-02-22T08:32:57;49.64;41.60;71.13;;
66274;Laerm;58450;52.150;4.466;2023-02-22T08:35:25;47.63;42.03;65.85;;
66274;Laerm;58450;52.150;4.466;2023-02-22T08:37:56;48.84;42.41;73.41;;
66274;Laerm;58450;52.150;4.466;2023-02-22T08:40:30;48.16;43.15;64.03;;
66274;Laerm;58450;52.150;4.466;2023-02-22T08:42:59;48.17;42.31;66.53;;
66274;Laerm;58450;52.150;4.466;2023-02-22T08:45:27;49.27;42.95;62.14;;
66274;Laerm;58450;52.150;4.466;2023-02-22T08:47:56;50.13;44.35;70.77;;
66274;Laerm;58450;52.150;4.466;2023-02-22T08:50:28;50.45;44.96;66.26;;
66274;Laerm;58450;52.150;4.466;2023-02-22T08:52:59;51.45;44.43;69.62;;
66274;Laerm;58450;52.150;4.466;2023-02-22T08:55:31;54.19;48.47;63.41;;
66274;Laerm;58450;52.150;4.466;2023-02-22T08:58:00;53.48;47.38;65.41;;
66274;Laerm;58450;52.150;4.466;2023-02-22T09:00:29;53.83;48.30;60.03;;
66274;Laerm;58450;52.150;4.466;2023-02-22T09:02:58;54.69;48.19;71.45;;
66274;Laerm;58450;52.150;4.466;2023-02-22T09:05:26;53.16;47.19;67.67;;
66274;Laerm;58450;52.150;4.466;2023-02-22T09:07:53;58.90;46.30;72.50;;
66274;Laerm;58450;52.150;4.466;2023-02-22T09:10:25;65.66;49.58;80.01;;
66274;Laerm;58450;52.150;4.466;2023-02-22T09:12:54;54.09;46.51;61.42;;
66274;Laerm;58450;52.150;4.466;2023-02-22T09:15:24;54.38;49.18;60.38;;
66274;Laerm;58450;52.150;4.466;2023-02-22T09:17:52;54.44;48.87;66.44;;
66274;Laerm;58450;52.150;4.466;2023-02-22T09:20:23;53.98;46.80;64.72;;
66274;Laerm;58450;52.150;4.466;2023-02-22T09:22:51;54.32;47.16;62.84;;
66274;Laerm;58450;52.150;4.466;2023-02-22T09:25:20;54.73;48.97;61.01;;
66274;Laerm;58450;52.150;4.466;2023-02-22T09:27:49;54.40;47.89;67.38;;
66274;Laerm;58450;52.150;4.466;2023-02-22T09:30:24;54.21;48.26;65.27;;
66274;Laerm;58450;52.150;4.466;2023-02-22T09:32:55;54.61;48.57;66.43;;
66274;Laerm;58450;52.150;4.466;2023-02-22T09:35:24;54.29;48.44;64.23;;
66274;Laerm;58450;52.150;4.466;2023-02-22T09:37:54;53.63;46.95;64.40;;
66274;Laerm;58450;52.150;4.466;2023-02-22T09:40:23;50.02;45.73;62.00;;
66274;Laerm;58450;52.150;4.466;2023-02-22T09:43:32;53.44;45.21;65.93;;
66274;Laerm;58450;52.150;4.466;2023-02-22T09:46:20;53.64;48.25;64.56;;
66274;Laerm;58450;52.150;4.466;2023-02-22T09:49:00;54.77;47.75;70.36;;
66274;Laerm;58450;52.150;4.466;2023-02-22T09:51:39;54.13;48.53;61.26;;
66274;Laerm;58450;52.150;4.466;2023-02-22T09:54:17;55.48;49.40;63.73;;
66274;Laerm;58450;52.150;4.466;2023-02-22T09:56:50;55.35;49.94;64.67;;
66274;Laerm;58450;52.150;4.466;2023-02-22T09:59:26;55.05;48.43;72.14;;
66274;Laerm;58450;52.150;4.466;2023-02-22T10:02:04;55.04;49.23;65.74;;
66274;Laerm;58450;52.150;4.466;2023-02-22T10:04:46;55.14;48.57;63.99;;
66274;Laerm;58450;52.150;4.466;2023-02-22T10:07:22;53.83;46.85;65.58;;
66274;Laerm;58450;52.150;4.466;2023-02-22T10:09:53;55.56;49.11;64.20;;
66274;Laerm;58450;52.150;4.466;2023-02-22T10:12:29;53.46;47.22;65.05;;
66274;Laerm;58450;52.150;4.466;2023-02-22T10:15:25;55.12;48.84;63.78;;
66274;Laerm;58450;52.150;4.466;2023-02-22T10:18:20;55.89;49.48;69.92;;
66274;Laerm;58450;52.150;4.466;2023-02-22T10:20:56;57.27;50.35;70.18;;
66274;Laerm;58450;52.150;4.466;2023-02-22T10:23:32;55.42;49.97;69.91;;
66274;Laerm;58450;52.150;4.466;2023-02-22T10:26:15;56.08;50.05;75.59;;
66274;Laerm;58450;52.150;4.466;2023-02-22T10:28:51;55.20;48.70;71.55;;
66274;Laerm;58450;52.150;4.466;2023-02-22T10:31:26;55.28;48.81;72.71;;
66274;Laerm;58450;52.150;4.466;2023-02-22T10:33:59;54.68;49.35;73.62;;
66274;Laerm;58450;52.150;4.466;2023-02-22T10:36:28;54.29;48.19;69.31;;
66274;Laerm;58450;52.150;4.466;2023-02-22T10:38:59;54.83;48.96;70.63;;
66274;Laerm;58450;52.150;4.466;2023-02-22T10:41:30;54.62;49.07;71.48;;
66274;Laerm;58450;52.150;4.466;2023-02-22T10:44:00;55.83;49.79;74.81;;
66274;Laerm;58450;52.150;4.466;2023-02-22T10:46:30;55.66;49.45;71.64;;
66274;Laerm;58450;52.150;4.466;2023-02-22T10:49:04;54.10;48.92;65.57;;
66274;Laerm;58450;52.150;4.466;2023-02-22T10:51:34;53.98;48.87;62.63;;
66274;Laerm;58450;52.150;4.466;2023-02-22T10:54:21;54.76;48.83;71.01;;
66274;Laerm;58450;52.150;4.466;2023-02-22T10:56:54;54.33;49.25;68.83;;
66274;Laerm;58450;52.150;4.466;2023-02-22T10:59:28;55.64;48.10;74.31;;
66274;Laerm;58450;52.150;4.466;2023-02-22T11:01:58;55.08;50.48;64.96;;
66274;Laerm;58450;52.150;4.466;2023-02-22T11:04:46;55.17;49.81;69.06;;
66274;Laerm;58450;52.150;4.466;2023-02-22T11:07:23;55.78;50.27;75.80;;
66274;Laerm;58450;52.150;4.466;2023-02-22T11:09:55;53.66;46.65;67.37;;
66274;Laerm;58450;52.150;4.466;2023-02-22T11:12:32;53.10;46.29;68.75;;
66274;Laerm;58450;52.150;4.466;2023-02-22T11:15:26;54.04;46.32;76.79;;
66274;Laerm;58450;52.150;4.466;2023-02-22T11:17:56;54.15;48.01;70.31;;
66274;Laerm;58450;52.150;4.466;2023-02-22T11:20:33;54.53;47.83;65.04;;
66274;Laerm;58450;52.150;4.466;2023-02-22T11:23:05;54.72;50.37;72.16;;
66274;Laerm;58450;52.150;4.466;2023-02-22T11:25:36;54.79;49.86;70.39;;
66274;Laerm;58450;52.150;4.466;2023-02-22T11:28:11;53.79;46.79;73.36;;
66274;Laerm;58450;52.150;4.466;2023-02-22T11:30:45;53.74;47.21;71.08;;
66274;Laerm;58450;52.150;4.466;2023-02-22T11:33:20;54.67;49.58;66.47;;
66274;Laerm;58450;52.150;4.466;2023-02-22T11:35:53;55.09;48.24;65.47;;
66274;Laerm;58450;52.150;4.466;2023-02-22T11:38:23;54.30;48.28;62.12;;
66274;Laerm;58450;52.150;4.466;2023-02-22T11:41:10;53.68;47.37;62.62;;
66274;Laerm;58450;52.150;4.466;2023-02-22T11:43:40;52.70;44.84;63.96;;
66274;Laerm;58450;52.150;4.466;2023-02-22T11:46:13;53.01;45.07;60.44;;
66274;Laerm;58450;52.150;4.466;2023-02-22T11:48:56;54.70;46.89;68.04;;
66274;Laerm;58450;52.150;4.466;2023-02-22T11:51:47;53.78;47.05;63.92;;
66274;Laerm;58450;52.150;4.466;2023-02-22T11:54:38;50.72;45.03;63.72;;
66274;Laerm;58450;52.150;4.466;2023-02-22T11:57:24;51.85;46.11;59.23;;
66274;Laerm;58450;52.150;4.466;2023-02-22T12:00:06;58.31;47.18;77.54;;
66274;Laerm;58450;52.150;4.466;2023-02-22T12:03:11;59.31;48.58;75.65;;
66274;Laerm;58450;52.150;4.466;2023-02-22T12:05:57;53.77;47.72;63.86;;
66274;Laerm;58450;52.150;4.466;2023-02-22T12:08:49;55.39;47.20;70.46;;
66274;Laerm;58450;52.150;4.466;2023-02-22T12:11:28;54.60;48.35;63.89;;
66274;Laerm;58450;52.150;4.466;2023-02-22T12:14:14;55.42;48.06;68.00;;
66274;Laerm;58450;52.150;4.466;2023-02-22T12:17:08;52.34;45.59;66.49;;
66274;Laerm;58450;52.150;4.466;2023-02-22T12:19:45;51.97;45.05;68.06;;
66274;Laerm;58450;52.150;4.466;2023-02-22T12:22:18;53.37;45.86;69.28;;
66274;Laerm;58450;52.150;4.466;2023-02-22T12:24:57;52.21;44.37;67.36;;
66274;Laerm;58450;52.150;4.466;2023-02-22T12:27:32;53.11;44.96;67.59;;
66274;Laerm;58450;52.150;4.466;2023-02-22T12:30:12;52.89;46.46;62.28;;
66274;Laerm;58450;52.150;4.466;2023-02-22T12:32:45;51.85;45.48;68.17;;
66274;Laerm;58450;52.150;4.466;2023-02-22T12:35:20;54.74;44.71;63.97;;
66274;Laerm;58450;52.150;4.466;2023-02-22T12:38:02;54.61;45.73;69.69;;
66274;Laerm;58450;52.150;4.466;2023-02-22T12:40:40;52.40;45.29;68.00;;
66274;Laerm;58450;52.150;4.466;2023-02-22T12:43:18;51.61;46.38;66.00;;
66274;Laerm;58450;52.150;4.466;2023-02-22T12:45:58;57.29;46.61;74.43;;
66274;Laerm;58450;52.150;4.466;2023-02-22T12:48:41;51.82;45.62;66.57;;
66274;Laerm;58450;52.150;4.466;2023-02-22T12:51:24;51.31;44.36;68.86;;
66274;Laerm;58450;52.150;4.466;2023-02-22T12:54:02;50.25;44.70;60.86;;
66274;Laerm;58450;52.150;4.466;2023-02-22T12:56:41;51.95;46.43;64.97;;
66274;Laerm;58450;52.150;4.466;2023-02-22T12:59:17;54.94;44.87;69.57;;
66274;Laerm;58450;52.150;4.466;2023-02-22T13:01:54;51.85;43.90;64.74;;
66274;Laerm;58450;52.150;4.466;2023-02-22T13:04:23;54.39;48.31;65.74;;
66274;Laerm;58450;52.150;4.466;2023-02-22T13:07:04;54.67;49.35;61.72;;
66274;Laerm;58450;52.150;4.466;2023-02-22T13:10:04;54.69;49.09;64.88;;
66274;Laerm;58450;52.150;4.466;2023-02-22T13:12:44;55.49;48.52;71.68;;
66274;Laerm;58450;52.150;4.466;2023-02-22T13:15:22;57.55;52.16;82.77;;
66274;Laerm;58450;52.150;4.466;2023-02-22T13:18:02;57.15;52.00;65.90;;
66274;Laerm;58450;52.150;4.466;2023-02-22T13:20:38;58.13;52.68;74.98;;
66274;Laerm;58450;52.150;4.466;2023-02-22T13:23:19;56.72;50.43;66.00;;
66274;Laerm;58450;52.150;4.466;2023-02-22T13:25:54;54.16;48.81;66.78;;
66274;Laerm;58450;52.150;4.466;2023-02-22T13:28:35;54.36;48.37;65.42;;
66274;Laerm;58450;52.150;4.466;2023-02-22T13:31:27;55.91;49.77;65.87;;
66274;Laerm;58450;52.150;4.466;2023-02-22T13:34:18;55.02;49.22;64.10;;
66274;Laerm;58450;52.150;4.466;2023-02-22T13:37:10;55.08;48.66;69.23;;
66274;Laerm;58450;52.150;4.466;2023-02-22T13:39:55;58.23;53.82;65.88;;
66274;Laerm;58450;52.150;4.466;2023-02-22T13:42:55;57.62;53.82;66.00;;
66274;Laerm;58450;52.150;4.466;2023-02-22T13:46:01;57.19;52.94;69.29;;
66274;Laerm;58450;52.150;4.466;2023-02-22T13:49:00;55.62;49.37;65.56;;
66274;Laerm;58450;52.150;4.466;2023-02-22T13:51:44;54.05;48.42;63.10;;
66274;Laerm;58450;52.150;4.466;2023-02-22T13:54:21;55.70;51.06;66.58;;
66274;Laerm;58450;52.150;4.466;2023-02-22T13:56:53;55.38;49.37;68.14;;
66274;Laerm;58450;52.150;4.466;2023-02-22T13:59:32;56.57;49.14;64.89;;
66274;Laerm;58450;52.150;4.466;2023-02-22T14:02:03;58.32;53.04;63.41;;
66274;Laerm;58450;52.150;4.466;2023-02-22T14:04:40;59.49;53.03;67.99;;
66274;Laerm;58450;52.150;4.466;2023-02-22T14:07:46;58.55;54.30;65.58;;
66274;Laerm;58450;52.150;4.466;2023-02-22T14:10:45;58.75;54.06;68.33;;
66274;Laerm;58450;52.150;4.466;2023-02-22T14:13:15;59.65;54.26;65.27;;
66274;Laerm;58450;52.150;4.466;2023-02-22T14:16:21;59.49;52.10;66.18;;
66274;Laerm;58450;52.150;4.466;2023-02-22T14:19:02;57.75;48.91;67.38;;
66274;Laerm;58450;52.150;4.466;2023-02-22T14:21:32;58.76;54.18;65.09;;
66274;Laerm;58450;52.150;4.466;2023-02-22T14:24:11;58.75;52.87;64.19;;
66274;Laerm;58450;52.150;4.466;2023-02-22T14:26:54;58.65;53.58;65.09;;